sensor_id;sensor_type;location;lat;lon;timestamp;temperature;humidity
24148;DHT22;12309;51.450;-2.624;2023-01-24T00:01:08;0.10;99.90
24148;DHT22;12309;51.450;-2.624;2023-01-24T00:06:00;0.10;99.90
24148;DHT22;12309;51.450;-2.624;2023-01-24T00:08:25;0.10;99.90
24148;DHT22;12309;51.450;-2.624;2023-01-24T00:11:02;0.10;99.90
24148;DHT22;12309;51.450;-2.624;2023-01-24T00:13:28;-0.10;99.90
24148;DHT22;12309;51.450;-2.624;2023-01-24T00:18:30;0.50;99.90
24148;DHT22;12309;51.450;-2.624;2023-01-24T00:21:10;-0.20;99.90
24148;DHT22;12309;51.450;-2.624;2023-01-24T00:23:38;0.80;99.90
24148;DHT22;12309;51.450;-2.624;2023-01-24T00:26:05;-0.30;99.90
24148;DHT22;12309;51.450;-2.624;2023-01-24T00:28:30;-0.30;99.90
24148;DHT22;12309;51.450;-2.624;2023-01-24T00:30:56;-0.40;99.90
24148;DHT22;12309;51.450;-2.624;2023-01-24T00:33:22;-0.30;99.90
24148;DHT22;12309;51.450;-2.624;2023-01-24T00:35:50;-0.40;99.90
24148;DHT22;12309;51.450;-2.624;2023-01-24T00:38:16;-0.30;99.90
24148;DHT22;12309;51.450;-2.624;2023-01-24T00:40:42;-0.50;99.90
24148;DHT22;12309;51.450;-2.624;2023-01-24T00:43:07;-0.40;99.90
24148;DHT22;12309;51.450;-2.624;2023-01-24T00:45:36;-0.40;99.90
24148;DHT22;12309;51.450;-2.624;2023-01-24T00:48:03;-0.60;99.90
24148;DHT22;12309;51.450;-2.624;2023-01-24T00:50:28;-0.40;99.90
24148;DHT22;12309;51.450;-2.624;2023-01-24T00:52:54;-0.40;99.90
24148;DHT22;12309;51.450;-2.624;2023-01-24T00:55:20;-0.20;99.90
24148;DHT22;12309;51.450;-2.624;2023-01-24T00:57:45;0.00;99.90
24148;DHT22;12309;51.450;-2.624;2023-01-24T01:00:11;-0.30;99.90
24148;DHT22;12309;51.450;-2.624;2023-01-24T01:02:37;-0.50;99.90
24148;DHT22;12309;51.450;-2.624;2023-01-24T01:05:04;-0.20;99.90
24148;DHT22;12309;51.450;-2.624;2023-01-24T01:07:29;-0.40;99.90
24148;DHT22;12309;51.450;-2.624;2023-01-24T01:12:21;-0.40;99.90
24148;DHT22;12309;51.450;-2.624;2023-01-24T01:14:47;-0.20;99.90
24148;DHT22;12309;51.450;-2.624;2023-01-24T01:17:12;-0.10;99.90
24148;DHT22;12309;51.450;-2.624;2023-01-24T01:22:04;-0.70;99.90
24148;DHT22;12309;51.450;-2.624;2023-01-24T01:24:29;-0.40;99.90
24148;DHT22;12309;51.450;-2.624;2023-01-24T01:26:55;-0.80;99.90
24148;DHT22;12309;51.450;-2.624;2023-01-24T01:29:21;-0.50;99.90
24148;DHT22;12309;51.450;-2.624;2023-01-24T01:31:46;-0.60;99.90
24148;DHT22;12309;51.450;-2.624;2023-01-24T01:34:12;-0.70;99.90
24148;DHT22;12309;51.450;-2.624;2023-01-24T01:36:37;-1.10;99.90
24148;DHT22;12309;51.450;-2.624;2023-01-24T01:39:03;-0.80;99.90
24148;DHT22;12309;51.450;-2.624;2023-01-24T01:41:29;-0.80;99.90
24148;DHT22;12309;51.450;-2.624;2023-01-24T01:43:54;-1.00;99.90
24148;DHT22;12309;51.450;-2.624;2023-01-24T01:46:44;-0.90;99.90
24148;DHT22;12309;51.450;-2.624;2023-01-24T01:49:23;-1.30;99.90
24148;DHT22;12309;51.450;-2.624;2023-01-24T01:51:53;-0.80;99.90
24148;DHT22;12309;51.450;-2.624;2023-01-24T01:54:30;-0.90;99.90
24148;DHT22;12309;51.450;-2.624;2023-01-24T01:57:14;-1.00;99.90
24148;DHT22;12309;51.450;-2.624;2023-01-24T01:59:55;-1.00;99.90
24148;DHT22;12309;51.450;-2.624;2023-01-24T02:02:23;-0.80;99.90
24148;DHT22;12309;51.450;-2.624;2023-01-24T02:04:59;-0.70;99.90
24148;DHT22;12309;51.450;-2.624;2023-01-24T02:10:00;-0.90;99.90
24148;DHT22;12309;51.450;-2.624;2023-01-24T02:12:39;-0.90;99.90
24148;DHT22;12309;51.450;-2.624;2023-01-24T02:15:18;-1.00;99.90
24148;DHT22;12309;51.450;-2.624;2023-01-24T02:18:03;-0.90;99.90
24148;DHT22;12309;51.450;-2.624;2023-01-24T02:20:43;-1.00;99.90
24148;DHT22;12309;51.450;-2.624;2023-01-24T02:28:40;-0.70;99.90
24148;DHT22;12309;51.450;-2.624;2023-01-24T02:31:07;-0.80;99.90
24148;DHT22;12309;51.450;-2.624;2023-01-24T02:33:33;-0.70;99.90
24148;DHT22;12309;51.450;-2.624;2023-01-24T02:36:30;-0.70;99.90
24148;DHT22;12309;51.450;-2.624;2023-01-24T02:41:32;-0.80;99.90
24148;DHT22;12309;51.450;-2.624;2023-01-24T02:44:05;-0.80;99.90
24148;DHT22;12309;51.450;-2.624;2023-01-24T02:46:37;-0.80;99.90
24148;DHT22;12309;51.450;-2.624;2023-01-24T02:49:07;-0.80;99.90
24148;DHT22;12309;51.450;-2.624;2023-01-24T02:51:33;-0.60;99.90
24148;DHT22;12309;51.450;-2.624;2023-01-24T02:54:17;-0.90;99.90
24148;DHT22;12309;51.450;-2.624;2023-01-24T02:56:42;-1.20;99.90
24148;DHT22;12309;51.450;-2.624;2023-01-24T03:01:53;-1.00;99.90
24148;DHT22;12309;51.450;-2.624;2023-01-24T03:04:18;-1.10;99.90
24148;DHT22;12309;51.450;-2.624;2023-01-24T03:09:10;-1.00;99.90
24148;DHT22;12309;51.450;-2.624;2023-01-24T03:11:48;-1.20;99.90
24148;DHT22;12309;51.450;-2.624;2023-01-24T03:14:15;-1.40;99.90
24148;DHT22;12309;51.450;-2.624;2023-01-24T03:17:00;-1.30;99.90
24148;DHT22;12309;51.450;-2.624;2023-01-24T03:19:44;-1.10;99.90
24148;DHT22;12309;51.450;-2.624;2023-01-24T03:22:28;-1.00;99.90
24148;DHT22;12309;51.450;-2.624;2023-01-24T03:25:12;-1.40;99.90
24148;DHT22;12309;51.450;-2.624;2023-01-24T03:28:02;-1.20;99.90
24148;DHT22;12309;51.450;-2.624;2023-01-24T03:30:47;-1.20;99.90
24148;DHT22;12309;51.450;-2.624;2023-01-24T03:33:31;-1.20;99.90
24148;DHT22;12309;51.450;-2.624;2023-01-24T03:36:15;-1.20;99.90
24148;DHT22;12309;51.450;-2.624;2023-01-24T03:38:46;-1.20;99.90
24148;DHT22;12309;51.450;-2.624;2023-01-24T03:41:30;-1.10;99.90
24148;DHT22;12309;51.450;-2.624;2023-01-24T03:43:56;-1.00;99.90
24148;DHT22;12309;51.450;-2.624;2023-01-24T03:48:47;-1.50;99.90
24148;DHT22;12309;51.450;-2.624;2023-01-24T03:51:13;-0.60;99.90
24148;DHT22;12309;51.450;-2.624;2023-01-24T03:53:57;-1.10;99.90
24148;DHT22;12309;51.450;-2.624;2023-01-24T03:56:23;-1.30;99.90
24148;DHT22;12309;51.450;-2.624;2023-01-24T03:58:48;-0.90;99.90
24148;DHT22;12309;51.450;-2.624;2023-01-24T04:03:40;-1.30;99.90
24148;DHT22;12309;51.450;-2.624;2023-01-24T04:06:06;-1.30;99.90
24148;DHT22;12309;51.450;-2.624;2023-01-24T04:08:31;-1.30;99.90
24148;DHT22;12309;51.450;-2.624;2023-01-24T04:10:57;-1.50;99.90
24148;DHT22;12309;51.450;-2.624;2023-01-24T04:13:23;-1.30;99.90
24148;DHT22;12309;51.450;-2.624;2023-01-24T04:15:49;-1.30;99.90
24148;DHT22;12309;51.450;-2.624;2023-01-24T04:18:15;-1.50;99.90
24148;DHT22;12309;51.450;-2.624;2023-01-24T04:20:40;-1.40;99.90
24148;DHT22;12309;51.450;-2.624;2023-01-24T04:23:07;-1.50;99.90
24148;DHT22;12309;51.450;-2.624;2023-01-24T04:25:33;-1.40;99.90
24148;DHT22;12309;51.450;-2.624;2023-01-24T04:27:59;-1.40;99.90
24148;DHT22;12309;51.450;-2.624;2023-01-24T04:30:25;-1.10;99.90
24148;DHT22;12309;51.450;-2.624;2023-01-24T04:32:51;-1.50;99.90
24148;DHT22;12309;51.450;-2.624;2023-01-24T04:35:19;-1.40;99.90
24148;DHT22;12309;51.450;-2.624;2023-01-24T04:37:45;-1.30;99.90
24148;DHT22;12309;51.450;-2.624;2023-01-24T04:40:12;-1.80;99.90
24148;DHT22;12309;51.450;-2.624;2023-01-24T04:42:38;-1.50;99.90
24148;DHT22;12309;51.450;-2.624;2023-01-24T04:45:05;-1.30;99.90
24148;DHT22;12309;51.450;-2.624;2023-01-24T04:52:22;-1.80;99.90
24148;DHT22;12309;51.450;-2.624;2023-01-24T04:54:48;-1.70;99.90
24148;DHT22;12309;51.450;-2.624;2023-01-24T04:57:14;-1.50;99.90
24148;DHT22;12309;51.450;-2.624;2023-01-24T04:59:39;-1.30;99.90
24148;DHT22;12309;51.450;-2.624;2023-01-24T05:02:05;-1.30;99.90
24148;DHT22;12309;51.450;-2.624;2023-01-24T05:04:30;-1.40;99.90
24148;DHT22;12309;51.450;-2.624;2023-01-24T05:06:56;-1.40;99.90
24148;DHT22;12309;51.450;-2.624;2023-01-24T05:09:22;-1.60;99.90
24148;DHT22;12309;51.450;-2.624;2023-01-24T05:14:13;-1.60;99.90
24148;DHT22;12309;51.450;-2.624;2023-01-24T05:16:39;-1.50;99.90
24148;DHT22;12309;51.450;-2.624;2023-01-24T05:19:05;-1.40;99.90
24148;DHT22;12309;51.450;-2.624;2023-01-24T05:21:31;-1.60;99.90
24148;DHT22;12309;51.450;-2.624;2023-01-24T05:23:57;-1.20;99.90
24148;DHT22;12309;51.450;-2.624;2023-01-24T05:26:25;-1.50;99.90
24148;DHT22;12309;51.450;-2.624;2023-01-24T05:28:51;-1.40;99.90
24148;DHT22;12309;51.450;-2.624;2023-01-24T05:31:17;-1.50;99.90
24148;DHT22;12309;51.450;-2.624;2023-01-24T05:33:43;-1.40;99.90
24148;DHT22;12309;51.450;-2.624;2023-01-24T05:36:15;-1.70;99.90
24148;DHT22;12309;51.450;-2.624;2023-01-24T05:41:10;-1.60;99.90
24148;DHT22;12309;51.450;-2.624;2023-01-24T05:43:37;-1.90;99.90
24148;DHT22;12309;51.450;-2.624;2023-01-24T05:46:05;-1.90;99.90
24148;DHT22;12309;51.450;-2.624;2023-01-24T05:48:31;-1.70;99.90
24148;DHT22;12309;51.450;-2.624;2023-01-24T05:51:03;-1.90;99.90
24148;DHT22;12309;51.450;-2.624;2023-01-24T05:53:30;-1.90;99.90
24148;DHT22;12309;51.450;-2.624;2023-01-24T05:55:58;-1.90;99.90
24148;DHT22;12309;51.450;-2.624;2023-01-24T05:58:25;-1.90;99.90
24148;DHT22;12309;51.450;-2.624;2023-01-24T06:00:52;-1.80;99.90
24148;DHT22;12309;51.450;-2.624;2023-01-24T06:03:17;-2.00;99.90
24148;DHT22;12309;51.450;-2.624;2023-01-24T06:05:51;-2.00;99.90
24148;DHT22;12309;51.450;-2.624;2023-01-24T06:08:18;-1.90;99.90
24148;DHT22;12309;51.450;-2.624;2023-01-24T06:10:43;-1.90;99.90
24148;DHT22;12309;51.450;-2.624;2023-01-24T06:15:36;-1.70;99.90
24148;DHT22;12309;51.450;-2.624;2023-01-24T06:18:02;-2.00;99.90
24148;DHT22;12309;51.450;-2.624;2023-01-24T06:20:28;-1.90;99.90
24148;DHT22;12309;51.450;-2.624;2023-01-24T06:22:56;-1.90;99.90
24148;DHT22;12309;51.450;-2.624;2023-01-24T06:25:25;-1.80;99.90
24148;DHT22;12309;51.450;-2.624;2023-01-24T06:27:51;-1.80;99.90
24148;DHT22;12309;51.450;-2.624;2023-01-24T06:30:18;-1.80;99.90
24148;DHT22;12309;51.450;-2.624;2023-01-24T06:38:23;-1.80;99.90
24148;DHT22;12309;51.450;-2.624;2023-01-24T06:40:55;-1.80;99.90
24148;DHT22;12309;51.450;-2.624;2023-01-24T06:43:21;-2.20;99.90
24148;DHT22;12309;51.450;-2.624;2023-01-24T06:45:47;-2.90;99.90
24148;DHT22;12309;51.450;-2.624;2023-01-24T06:48:12;-1.90;99.90
24148;DHT22;12309;51.450;-2.624;2023-01-24T06:50:38;-2.00;99.90
24148;DHT22;12309;51.450;-2.624;2023-01-24T06:53:04;-2.20;99.90
24148;DHT22;12309;51.450;-2.624;2023-01-24T06:55:30;-2.00;99.90
24148;DHT22;12309;51.450;-2.624;2023-01-24T06:57:57;-2.00;99.90
24148;DHT22;12309;51.450;-2.624;2023-01-24T07:00:23;-2.10;99.90
24148;DHT22;12309;51.450;-2.624;2023-01-24T07:02:57;-2.30;99.90
24148;DHT22;12309;51.450;-2.624;2023-01-24T07:05:23;-2.20;99.90
24148;DHT22;12309;51.450;-2.624;2023-01-24T07:07:48;-2.00;99.90
24148;DHT22;12309;51.450;-2.624;2023-01-24T07:10:14;-1.50;99.90
24148;DHT22;12309;51.450;-2.624;2023-01-24T07:12:42;-2.30;99.90
24148;DHT22;12309;51.450;-2.624;2023-01-24T07:15:08;-1.70;99.90
24148;DHT22;12309;51.450;-2.624;2023-01-24T07:17:34;-2.00;99.90
24148;DHT22;12309;51.450;-2.624;2023-01-24T07:20:00;-2.10;99.90
24148;DHT22;12309;51.450;-2.624;2023-01-24T07:22:26;-1.80;99.90
24148;DHT22;12309;51.450;-2.624;2023-01-24T07:27:18;-1.20;99.90
24148;DHT22;12309;51.450;-2.624;2023-01-24T07:29:43;-2.00;99.90
24148;DHT22;12309;51.450;-2.624;2023-01-24T07:32:09;-2.00;99.90
24148;DHT22;12309;51.450;-2.624;2023-01-24T07:34:35;-1.90;99.90
24148;DHT22;12309;51.450;-2.624;2023-01-24T07:37:01;-1.70;99.90
24148;DHT22;12309;51.450;-2.624;2023-01-24T07:39:29;-2.10;99.90
24148;DHT22;12309;51.450;-2.624;2023-01-24T07:41:55;-2.00;99.90
24148;DHT22;12309;51.450;-2.624;2023-01-24T07:44:20;-2.00;99.90
24148;DHT22;12309;51.450;-2.624;2023-01-24T07:46:46;-1.40;99.90
24148;DHT22;12309;51.450;-2.624;2023-01-24T07:49:11;-1.80;99.90
24148;DHT22;12309;51.450;-2.624;2023-01-24T07:51:37;-1.70;99.90
24148;DHT22;12309;51.450;-2.624;2023-01-24T07:54:03;-2.00;99.90
24148;DHT22;12309;51.450;-2.624;2023-01-24T07:58:54;-1.50;99.90
24148;DHT22;12309;51.450;-2.624;2023-01-24T08:01:22;-1.80;99.90
24148;DHT22;12309;51.450;-2.624;2023-01-24T08:03:48;-1.90;99.90
24148;DHT22;12309;51.450;-2.624;2023-01-24T08:08:41;-2.20;99.90
24148;DHT22;12309;51.450;-2.624;2023-01-24T08:11:07;-1.80;99.90
24148;DHT22;12309;51.450;-2.624;2023-01-24T08:13:36;-1.70;99.90
24148;DHT22;12309;51.450;-2.624;2023-01-24T08:16:01;-1.30;99.90
24148;DHT22;12309;51.450;-2.624;2023-01-24T08:18:27;-1.40;99.90
24148;DHT22;12309;51.450;-2.624;2023-01-24T08:20:56;-1.30;99.90
24148;DHT22;12309;51.450;-2.624;2023-01-24T08:23:22;-1.40;99.90
24148;DHT22;12309;51.450;-2.624;2023-01-24T08:25:47;-1.10;99.90
24148;DHT22;12309;51.450;-2.624;2023-01-24T08:28:13;-0.90;99.90
24148;DHT22;12309;51.450;-2.624;2023-01-24T08:30:39;-0.80;99.90
24148;DHT22;12309;51.450;-2.624;2023-01-24T08:33:05;0.00;99.90
24148;DHT22;12309;51.450;-2.624;2023-01-24T08:35:32;-0.30;99.90
24148;DHT22;12309;51.450;-2.624;2023-01-24T08:37:58;-0.10;99.90
24148;DHT22;12309;51.450;-2.624;2023-01-24T08:40:24;0.20;99.90
24148;DHT22;12309;51.450;-2.624;2023-01-24T08:42:50;0.20;99.90
24148;DHT22;12309;51.450;-2.624;2023-01-24T08:45:15;1.70;99.90
24148;DHT22;12309;51.450;-2.624;2023-01-24T08:47:41;0.60;99.90
24148;DHT22;12309;51.450;-2.624;2023-01-24T08:50:07;1.00;99.90
24148;DHT22;12309;51.450;-2.624;2023-01-24T08:52:33;0.60;99.90
24148;DHT22;12309;51.450;-2.624;2023-01-24T08:54:59;0.90;99.90
24148;DHT22;12309;51.450;-2.624;2023-01-24T08:57:25;1.20;99.90
24148;DHT22;12309;51.450;-2.624;2023-01-24T08:59:51;1.20;99.90
24148;DHT22;12309;51.450;-2.624;2023-01-24T09:02:16;1.40;99.90
24148;DHT22;12309;51.450;-2.624;2023-01-24T09:04:42;1.60;99.90
24148;DHT22;12309;51.450;-2.624;2023-01-24T09:07:10;1.90;99.90
24148;DHT22;12309;51.450;-2.624;2023-01-24T09:09:35;2.20;99.90
24148;DHT22;12309;51.450;-2.624;2023-01-24T09:12:01;2.80;99.90
24148;DHT22;12309;51.450;-2.624;2023-01-24T09:14:27;3.30;99.90
24148;DHT22;12309;51.450;-2.624;2023-01-24T09:16:52;3.50;99.90
24148;DHT22;12309;51.450;-2.624;2023-01-24T09:19:18;4.50;99.90
24148;DHT22;12309;51.450;-2.624;2023-01-24T09:21:44;5.00;99.90
24148;DHT22;12309;51.450;-2.624;2023-01-24T09:24:10;5.70;99.90
24148;DHT22;12309;51.450;-2.624;2023-01-24T09:26:35;6.10;99.90
24148;DHT22;12309;51.450;-2.624;2023-01-24T09:29:01;6.20;99.90
24148;DHT22;12309;51.450;-2.624;2023-01-24T09:31:27;5.30;99.90
24148;DHT22;12309;51.450;-2.624;2023-01-24T09:33:52;4.80;99.90
24148;DHT22;12309;51.450;-2.624;2023-01-24T09:36:18;5.10;99.90
24148;DHT22;12309;51.450;-2.624;2023-01-24T09:38:43;4.40;99.90
24148;DHT22;12309;51.450;-2.624;2023-01-24T09:44:15;3.40;99.90
24148;DHT22;12309;51.450;-2.624;2023-01-24T09:46:48;4.00;99.90
24148;DHT22;12309;51.450;-2.624;2023-01-24T09:49:34;4.30;99.90
24148;DHT22;12309;51.450;-2.624;2023-01-24T09:52:06;4.70;99.90
24148;DHT22;12309;51.450;-2.624;2023-01-24T09:54:43;5.30;99.90
24148;DHT22;12309;51.450;-2.624;2023-01-24T10:00:19;5.40;99.90
24148;DHT22;12309;51.450;-2.624;2023-01-24T10:02:46;4.50;99.90
24148;DHT22;12309;51.450;-2.624;2023-01-24T10:05:16;4.80;99.90
24148;DHT22;12309;51.450;-2.624;2023-01-24T10:16:04;3.50;99.90
24148;DHT22;12309;51.450;-2.624;2023-01-24T10:23:55;3.10;99.90
24148;DHT22;12309;51.450;-2.624;2023-01-24T10:26:36;3.20;99.90
24148;DHT22;12309;51.450;-2.624;2023-01-24T10:29:19;3.40;99.90
24148;DHT22;12309;51.450;-2.624;2023-01-24T10:32:14;3.60;99.90
24148;DHT22;12309;51.450;-2.624;2023-01-24T10:34:46;3.90;99.90
24148;DHT22;12309;51.450;-2.624;2023-01-24T10:37:34;3.70;99.90
24148;DHT22;12309;51.450;-2.624;2023-01-24T10:40:12;5.70;99.90
24148;DHT22;12309;51.450;-2.624;2023-01-24T10:42:38;5.60;99.90
24148;DHT22;12309;51.450;-2.624;2023-01-24T10:50:47;4.90;99.90
24148;DHT22;12309;51.450;-2.624;2023-01-24T10:53:23;4.70;99.90
24148;DHT22;12309;51.450;-2.624;2023-01-24T10:55:57;5.00;99.90
24148;DHT22;12309;51.450;-2.624;2023-01-24T10:58:26;4.90;99.90
24148;DHT22;12309;51.450;-2.624;2023-01-24T11:00:57;5.80;99.90
24148;DHT22;12309;51.450;-2.624;2023-01-24T11:03:27;5.70;99.90
24148;DHT22;12309;51.450;-2.624;2023-01-24T11:05:56;6.40;99.90
24148;DHT22;12309;51.450;-2.624;2023-01-24T11:08:25;6.60;99.90
24148;DHT22;12309;51.450;-2.624;2023-01-24T11:10:53;7.80;99.90
24148;DHT22;12309;51.450;-2.624;2023-01-24T11:13:37;10.60;99.90
24148;DHT22;12309;51.450;-2.624;2023-01-24T11:19:19;9.50;99.90
24148;DHT22;12309;51.450;-2.624;2023-01-24T11:21:32;8.70;99.90
24148;DHT22;12309;51.450;-2.624;2023-01-24T11:24:14;9.20;99.90
24148;DHT22;12309;51.450;-2.624;2023-01-24T11:27:02;9.80;99.90
24148;DHT22;12309;51.450;-2.624;2023-01-24T11:29:29;11.50;99.90
24148;DHT22;12309;51.450;-2.624;2023-01-24T11:34:50;12.30;99.90
24148;DHT22;12309;51.450;-2.624;2023-01-24T11:40:27;14.70;99.90
24148;DHT22;12309;51.450;-2.624;2023-01-24T11:46:19;13.50;99.90
24148;DHT22;12309;51.450;-2.624;2023-01-24T11:52:00;16.20;99.90
24148;DHT22;12309;51.450;-2.624;2023-01-24T12:06:04;19.90;99.90
24148;DHT22;12309;51.450;-2.624;2023-01-24T12:11:34;20.40;92.80
24148;DHT22;12309;51.450;-2.624;2023-01-24T12:16:59;20.40;91.50
24148;DHT22;12309;51.450;-2.624;2023-01-24T12:19:49;20.40;88.80
24148;DHT22;12309;51.450;-2.624;2023-01-24T12:22:22;21.10;75.80
24148;DHT22;12309;51.450;-2.624;2023-01-24T12:24:53;21.20;77.90
24148;DHT22;12309;51.450;-2.624;2023-01-24T12:27:23;21.80;73.40
24148;DHT22;12309;51.450;-2.624;2023-01-24T12:32:34;21.80;61.10
24148;DHT22;12309;51.450;-2.624;2023-01-24T12:35:23;22.70;54.00
24148;DHT22;12309;51.450;-2.624;2023-01-24T12:38:04;22.50;47.40
24148;DHT22;12309;51.450;-2.624;2023-01-24T12:40:44;22.10;37.00
24148;DHT22;12309;51.450;-2.624;2023-01-24T12:43:38;21.40;31.40
24148;DHT22;12309;51.450;-2.624;2023-01-24T12:46:16;21.50;24.20
24148;DHT22;12309;51.450;-2.624;2023-01-24T12:51:53;22.00;24.70
24148;DHT22;12309;51.450;-2.624;2023-01-24T12:54:39;20.50;19.80
24148;DHT22;12309;51.450;-2.624;2023-01-24T12:57:19;21.50;18.40
24148;DHT22;12309;51.450;-2.624;2023-01-24T12:59:48;21.50;12.10
24148;DHT22;12309;51.450;-2.624;2023-01-24T13:02:55;21.80;14.90
24148;DHT22;12309;51.450;-2.624;2023-01-24T13:13:15;20.80;1.00
24148;DHT22;12309;51.450;-2.624;2023-01-24T13:18:50;20.50;1.00
24148;DHT22;12309;51.450;-2.624;2023-01-24T13:21:40;22.20;3.50
24148;DHT22;12309;51.450;-2.624;2023-01-24T13:26:52;22.10;1.00
24148;DHT22;12309;51.450;-2.624;2023-01-24T13:29:29;21.70;1.00
24148;DHT22;12309;51.450;-2.624;2023-01-24T13:32:12;20.80;1.00
24148;DHT22;12309;51.450;-2.624;2023-01-24T13:34:47;20.40;1.00
24148;DHT22;12309;51.450;-2.624;2023-01-24T13:37:19;21.50;1.00
24148;DHT22;12309;51.450;-2.624;2023-01-24T13:39:47;20.80;1.00
24148;DHT22;12309;51.450;-2.624;2023-01-24T13:42:22;19.90;1.00
24148;DHT22;12309;51.450;-2.624;2023-01-24T13:44:49;20.60;1.00
24148;DHT22;12309;51.450;-2.624;2023-01-24T13:57:44;17.90;1.00
24148;DHT22;12309;51.450;-2.624;2023-01-24T14:07:56;18.10;1.00
24148;DHT22;12309;51.450;-2.624;2023-01-24T14:10:33;18.90;1.00
24148;DHT22;12309;51.450;-2.624;2023-01-24T14:15:37;16.10;1.00
24148;DHT22;12309;51.450;-2.624;2023-01-24T14:21:05;15.20;1.00
24148;DHT22;12309;51.450;-2.624;2023-01-24T14:23:39;17.20;3.80
24148;DHT22;12309;51.450;-2.624;2023-01-24T14:26:05;16.10;7.10
24148;DHT22;12309;51.450;-2.624;2023-01-24T14:28:37;16.20;1.00
24148;DHT22;12309;51.450;-2.624;2023-01-24T14:31:38;15.70;7.60
24148;DHT22;12309;51.450;-2.624;2023-01-24T14:34:20;15.60;7.90
24148;DHT22;12309;51.450;-2.624;2023-01-24T14:36:49;14.30;23.80
24148;DHT22;12309;51.450;-2.624;2023-01-24T14:39:24;14.00;20.50
24148;DHT22;12309;51.450;-2.624;2023-01-24T14:41:58;13.90;26.90
24148;DHT22;12309;51.450;-2.624;2023-01-24T14:44:25;14.10;47.40
24148;DHT22;12309;51.450;-2.624;2023-01-24T14:46:53;14.30;48.30
24148;DHT22;12309;51.450;-2.624;2023-01-24T14:51:52;14.20;41.30
24148;DHT22;12309;51.450;-2.624;2023-01-24T14:54:22;13.30;51.30
24148;DHT22;12309;51.450;-2.624;2023-01-24T14:56:48;13.30;51.10
24148;DHT22;12309;51.450;-2.624;2023-01-24T14:59:17;14.00;53.30
24148;DHT22;12309;51.450;-2.624;2023-01-24T15:01:44;13.70;50.60
24148;DHT22;12309;51.450;-2.624;2023-01-24T15:04:28;13.40;59.00
24148;DHT22;12309;51.450;-2.624;2023-01-24T15:07:11;12.50;57.30
24148;DHT22;12309;51.450;-2.624;2023-01-24T15:09:38;13.80;59.00
24148;DHT22;12309;51.450;-2.624;2023-01-24T15:14:47;15.20;59.20
24148;DHT22;12309;51.450;-2.624;2023-01-24T15:17:22;14.90;55.10
24148;DHT22;12309;51.450;-2.624;2023-01-24T15:19:49;14.30;54.90
24148;DHT22;12309;51.450;-2.624;2023-01-24T15:22:20;14.90;65.20
24148;DHT22;12309;51.450;-2.624;2023-01-24T15:24:57;14.50;62.00
24148;DHT22;12309;51.450;-2.624;2023-01-24T15:38:28;13.00;82.40
24148;DHT22;12309;51.450;-2.624;2023-01-24T15:46:42;13.00;91.60
24148;DHT22;12309;51.450;-2.624;2023-01-24T15:52:00;12.90;99.90
24148;DHT22;12309;51.450;-2.624;2023-01-24T15:54:26;12.90;99.90
24148;DHT22;12309;51.450;-2.624;2023-01-24T15:56:54;13.60;99.90
24148;DHT22;12309;51.450;-2.624;2023-01-24T15:59:20;13.50;99.90
24148;DHT22;12309;51.450;-2.624;2023-01-24T16:01:48;13.00;99.90
24148;DHT22;12309;51.450;-2.624;2023-01-24T16:04:15;12.40;99.90
24148;DHT22;12309;51.450;-2.624;2023-01-24T16:06:41;12.20;99.90
24148;DHT22;12309;51.450;-2.624;2023-01-24T16:09:07;12.20;99.90
24148;DHT22;12309;51.450;-2.624;2023-01-24T16:11:35;11.90;99.90
24148;DHT22;12309;51.450;-2.624;2023-01-24T16:14:01;12.00;99.90
24148;DHT22;12309;51.450;-2.624;2023-01-24T16:16:27;11.80;99.90
24148;DHT22;12309;51.450;-2.624;2023-01-24T16:18:53;11.10;99.90
24148;DHT22;12309;51.450;-2.624;2023-01-24T16:21:19;11.10;99.90
24148;DHT22;12309;51.450;-2.624;2023-01-24T16:23:45;10.70;99.90
24148;DHT22;12309;51.450;-2.624;2023-01-24T16:26:23;9.80;99.90
24148;DHT22;12309;51.450;-2.624;2023-01-24T16:28:49;8.90;99.90
24148;DHT22;12309;51.450;-2.624;2023-01-24T16:31:16;8.30;99.90
24148;DHT22;12309;51.450;-2.624;2023-01-24T16:33:42;7.90;99.90
24148;DHT22;12309;51.450;-2.624;2023-01-24T16:36:12;7.50;99.90
24148;DHT22;12309;51.450;-2.624;2023-01-24T16:38:40;7.20;99.90
24148;DHT22;12309;51.450;-2.624;2023-01-24T16:41:06;7.10;99.90
24148;DHT22;12309;51.450;-2.624;2023-01-24T16:43:31;6.70;99.90
24148;DHT22;12309;51.450;-2.624;2023-01-24T16:45:57;6.70;99.90
24148;DHT22;12309;51.450;-2.624;2023-01-24T16:48:23;6.50;99.90
24148;DHT22;12309;51.450;-2.624;2023-01-24T16:50:48;6.30;99.90
24148;DHT22;12309;51.450;-2.624;2023-01-24T16:53:14;6.20;99.90
24148;DHT22;12309;51.450;-2.624;2023-01-24T16:55:40;6.10;99.90
24148;DHT22;12309;51.450;-2.624;2023-01-24T16:58:07;5.80;99.90
24148;DHT22;12309;51.450;-2.624;2023-01-24T17:00:34;5.70;99.90
24148;DHT22;12309;51.450;-2.624;2023-01-24T17:03:00;5.70;99.90
24148;DHT22;12309;51.450;-2.624;2023-01-24T17:07:53;5.40;99.90
24148;DHT22;12309;51.450;-2.624;2023-01-24T17:12:45;5.20;99.90
24148;DHT22;12309;51.450;-2.624;2023-01-24T17:15:11;5.10;99.90
24148;DHT22;12309;51.450;-2.624;2023-01-24T17:17:37;5.00;99.90
24148;DHT22;12309;51.450;-2.624;2023-01-24T17:20:07;4.90;99.90
24148;DHT22;12309;51.450;-2.624;2023-01-24T17:22:33;4.80;99.90
24148;DHT22;12309;51.450;-2.624;2023-01-24T17:24:59;4.70;99.90
24148;DHT22;12309;51.450;-2.624;2023-01-24T17:27:25;4.80;99.90
24148;DHT22;12309;51.450;-2.624;2023-01-24T17:29:51;4.50;99.90
24148;DHT22;12309;51.450;-2.624;2023-01-24T17:32:17;4.30;99.90
24148;DHT22;12309;51.450;-2.624;2023-01-24T17:34:42;4.30;99.90
24148;DHT22;12309;51.450;-2.624;2023-01-24T17:37:08;4.40;99.90
24148;DHT22;12309;51.450;-2.624;2023-01-24T17:39:34;4.10;99.90
24148;DHT22;12309;51.450;-2.624;2023-01-24T17:41:59;4.30;99.90
24148;DHT22;12309;51.450;-2.624;2023-01-24T17:44:25;4.10;99.90
24148;DHT22;12309;51.450;-2.624;2023-01-24T17:46:50;4.10;99.90
24148;DHT22;12309;51.450;-2.624;2023-01-24T17:49:16;4.10;99.90
24148;DHT22;12309;51.450;-2.624;2023-01-24T17:51:42;4.00;99.90
24148;DHT22;12309;51.450;-2.624;2023-01-24T17:54:12;3.90;99.90
24148;DHT22;12309;51.450;-2.624;2023-01-24T17:56:38;3.40;99.90
24148;DHT22;12309;51.450;-2.624;2023-01-24T17:59:05;3.40;99.90
24148;DHT22;12309;51.450;-2.624;2023-01-24T18:01:30;3.60;99.90
24148;DHT22;12309;51.450;-2.624;2023-01-24T18:03:56;3.60;99.90
24148;DHT22;12309;51.450;-2.624;2023-01-24T18:06:22;3.50;99.90
24148;DHT22;12309;51.450;-2.624;2023-01-24T18:08:48;3.50;99.90
24148;DHT22;12309;51.450;-2.624;2023-01-24T18:11:16;3.60;99.90
24148;DHT22;12309;51.450;-2.624;2023-01-24T18:13:42;3.40;99.90
24148;DHT22;12309;51.450;-2.624;2023-01-24T18:16:10;3.30;99.90
24148;DHT22;12309;51.450;-2.624;2023-01-24T18:18:38;3.20;99.90
24148;DHT22;12309;51.450;-2.624;2023-01-24T18:21:11;3.20;99.90
24148;DHT22;12309;51.450;-2.624;2023-01-24T18:23:38;3.10;99.90
24148;DHT22;12309;51.450;-2.624;2023-01-24T18:26:04;3.10;99.90
24148;DHT22;12309;51.450;-2.624;2023-01-24T18:28:33;3.20;99.90
24148;DHT22;12309;51.450;-2.624;2023-01-24T18:30:59;2.60;99.90
24148;DHT22;12309;51.450;-2.624;2023-01-24T18:33:24;2.90;99.90
24148;DHT22;12309;51.450;-2.624;2023-01-24T18:35:51;2.70;99.90
24148;DHT22;12309;51.450;-2.624;2023-01-24T18:38:17;2.70;99.90
24148;DHT22;12309;51.450;-2.624;2023-01-24T18:40:42;1.00;99.90
24148;DHT22;12309;51.450;-2.624;2023-01-24T18:43:08;2.70;99.90